Flight Track Log - Related Links

Times and Time Zones

All times are in EDT time to prevent confusion due to time zone crossing. See the CTL78 flight status page for this flight to view local times or setup timezone preferences in your user account.

Time Position Orientation Groundspeed Altitude Reporting Facility
EDT Latitude Longitude Course Direction KTS MPH feet Rate Location/Type
Fri 05:42:45 PM 42.2650 -83.5714 298° West 116 133 2,300  Level Cleveland Center
Fri 05:43:52 PM 42.2461 -83.5761 190° South 122 140 3,400 940 Climbing Cleveland Center
Fri 05:44:59 PM 42.2306 -83.5306 115° Southeast 119 137 4,400 797 Climbing Cleveland Center
Fri 05:46:00 PM 42.2150 -83.4906 118° Southeast 132 152 5,100 313 Climbing Cleveland Center
Fri 05:47:00 PM 42.1284 -83.2393 101° East  Level Estimated
Fri 05:47:13 PM 42.1894 -83.4222 117° Southeast 169 194 5,100  Level Cleveland Center
Fri 05:48:01 PM 42.1700 -83.3736 118° Southeast 169 194 5,000 -55 Descending Cleveland Center
Fri 05:49:02 PM 42.1525 -83.3197 114° Southeast 167 192 5,000  Level Cleveland Center
Fri 05:50:03 PM 42.1308 -83.2628 117° Southeast 167 192 5,000  Level Cleveland Center
Fri 05:51:05 PM 42.1114 -83.2086 116° Southeast 164 189 5,000  Level Cleveland Center
Fri 05:52:05 PM 42.0894 -83.1575 120° Southeast 163 188 5,000  Level Cleveland Center
Fri 05:53:06 PM 42.0678 -83.1006 117° Southeast 160 184 5,000  Level Cleveland Center
Fri 05:54:08 PM 42.0483 -83.0411 114° Southeast 162 186 5,000 49 Level Cleveland Center
Fri 05:55:09 PM 42.0264 -82.9900 120° Southeast 163 188 5,100  Climbing Cleveland Center
Fri 05:56:09 PM 42.0025 -82.9386 122° Southeast 162 186 5,000 52 Descending Cleveland Center
Fri 05:57:04 PM 41.9847 -82.8878 115° Southeast 161 185 5,200 51 Climbing Cleveland Center
Fri 05:58:06 PM 41.9628 -82.8367 120° Southeast 161 185 5,100 -65 Descending Cleveland Center
Fri 05:58:36 PM 41.9531 -82.8083 115° Southeast 163 188 5,100  Level Cleveland Center
Fri 05:59:37 PM 41.9289 -82.7517 120° Southeast 163 188 5,100  Level Cleveland Center
Fri 06:00:38 PM 41.9072 -82.6981 118° Southeast 159 183 5,100  Level Cleveland Center
Fri 06:01:38 PM 41.8914 -82.6444 112° Southeast 162 186 5,100  Level Cleveland Center
Fri 06:02:39 PM 41.8694 -82.5908 119° Southeast 160 184 5,100  Level Cleveland Center
Fri 06:03:46 PM 41.8453 -82.5317 119° Southeast 170 196 5,100  Level Cleveland Center
Fri 06:04:47 PM 41.8233 -82.4808 120° Southeast 157 181 5,100  Level Cleveland Center
Fri 06:05:48 PM 41.8033 -82.4244 115° Southeast 165 190 5,100  Level Cleveland Center
Fri 06:06:49 PM 41.7814 -82.3708 119° Southeast 163 188 5,100  Level Cleveland Center
Fri 06:07:49 PM 41.7592 -82.3200 120° Southeast 162 186 5,100 -99 Level Cleveland Center
Fri 06:08:50 PM 41.7414 -82.2639 113° Southeast 161 185 4,900 -246 Descending Cleveland Center
Fri 06:09:51 PM 41.7128 -82.2047 123° Southeast 174 200 4,600 -362 Descending Cleveland Center
Fri 06:10:46 PM 41.6950 -82.1542 115° Southeast 172 198 4,200 -466 Descending Cleveland Center
Fri 06:11:47 PM 41.6728 -82.0981 118° Southeast 176 203 3,700 -541 Descending Cleveland Center
Fri 06:12:48 PM 41.6464 -82.0392 121° Southeast 175 201 3,100 -469 Descending Cleveland Center
Fri 06:13:55 PM 41.6219 -81.9803 119° Southeast 169 194 2,700 -375 Descending Cleveland Center
Fri 06:14:56 PM 41.5978 -81.9269 121° Southeast 167 192 2,300 -347 Descending Cleveland Center
Fri 06:15:56 PM 41.5733 -81.8767 123° Southeast 160 184 2,000 -198 Descending Cleveland Center
Fri 06:16:57 PM 41.5467 -81.8206 122° Southeast 154 177 1,900 -141 Descending Cleveland Center
Fri 06:18:04 PM 41.5264 -81.7703 118° Southeast 149 171 1,700 -179 Descending Cleveland Center

Login

Don't have an account? Register now (free) for customized features, flight alerts, and more!